createdAt,value
2023-02-27T00:01:39.317Z,61.19
2023-02-27T00:04:41.925Z,61.62
2023-02-27T00:07:44.692Z,60.97
2023-02-27T00:10:47.341Z,61.41
2023-02-27T00:13:51.360Z,61.42
2023-02-27T00:16:55.411Z,61.82
2023-02-27T00:19:58.185Z,61.88
2023-02-27T00:23:13.347Z,62.72
2023-02-27T00:26:15.991Z,62.30
2023-02-27T00:29:19.515Z,62.41
2023-02-27T00:32:23.477Z,62.53
2023-02-27T00:35:26.242Z,62.36
2023-02-27T00:38:29.491Z,62.19
2023-02-27T00:41:32.209Z,62.31
2023-02-27T00:44:34.726Z,62.82
2023-02-27T00:47:38.781Z,62.78
2023-02-27T00:50:41.357Z,63.73
2023-02-27T00:53:43.966Z,63.54
2023-02-27T00:56:46.550Z,63.69
2023-02-27T00:59:49.529Z,63.85
2023-02-27T01:02:53.403Z,63.25
2023-02-27T01:05:59.410Z,63.64
2023-02-27T01:09:02.590Z,63.05
2023-02-27T01:12:05.465Z,62.21
2023-02-27T01:15:09.817Z,62.17
2023-02-27T01:18:13.759Z,61.68
2023-02-27T01:21:16.588Z,61.33
2023-02-27T01:24:19.868Z,60.76
2023-02-27T01:27:22.482Z,60.74
2023-02-27T01:30:25.063Z,60.58
2023-02-27T01:33:29.007Z,61.13
2023-02-27T01:36:31.701Z,61.74
2023-02-27T01:39:34.291Z,62.03
2023-02-27T01:42:37.245Z,62.75
2023-02-27T01:45:41.355Z,63.62
2023-02-27T01:48:45.530Z,63.76
2023-02-27T01:51:50.403Z,64.10
2023-02-27T01:54:53.388Z,63.48
2023-02-27T01:57:56.311Z,63.40
2023-02-27T02:00:58.842Z,63.62
2023-02-27T02:04:07.896Z,62.96
2023-02-27T02:07:13.564Z,63.09
2023-02-27T02:10:17.023Z,63.91
2023-02-27T02:13:20.266Z,63.09
2023-02-27T02:16:42.880Z,63.05
2023-02-27T02:20:36.843Z,63.65
2023-02-27T02:24:01.277Z,63.51
2023-02-27T02:27:19.763Z,64.48
2023-02-27T02:30:57.281Z,64.01
2023-02-27T02:34:25.747Z,63.92
2023-02-27T02:38:10.885Z,63.99
2023-02-27T02:41:20.446Z,64.46
2023-02-27T02:44:27.418Z,64.05
2023-02-27T02:47:36.713Z,64.25
2023-02-27T02:50:43.218Z,64.57
2023-02-27T02:53:49.762Z,64.64
2023-02-27T02:56:58.093Z,65.03
2023-02-27T03:00:06.291Z,65.04
2023-02-27T03:03:13.087Z,64.62
2023-02-27T03:06:19.109Z,65.46
2023-02-27T03:09:25.548Z,65.29
2023-02-27T03:12:30.397Z,65.07
2023-02-27T03:15:38.018Z,64.54
2023-02-27T03:18:44.632Z,64.65
2023-02-27T03:21:49.668Z,65.18
2023-02-27T03:24:54.625Z,65.29
2023-02-27T03:28:01.864Z,65.27
2023-02-27T03:31:10.316Z,65.47
2023-02-27T03:34:18.041Z,65.52
2023-02-27T03:37:26.081Z,65.64
2023-02-27T03:40:32.292Z,65.17
2023-02-27T03:43:41.957Z,65.43
2023-02-27T03:46:44.782Z,65.19
2023-02-27T03:49:47.467Z,65.19
2023-02-27T03:52:50.306Z,65.72
2023-02-27T03:59:37.655Z,65.72
2023-02-27T04:02:41.183Z,66.45
2023-02-27T04:05:43.811Z,66.44
2023-02-27T04:08:52.080Z,66.17
2023-02-27T04:12:10.198Z,66.53
2023-02-27T04:15:19.136Z,66.38
2023-02-27T04:18:28.904Z,66.74
2023-02-27T04:21:36.216Z,66.25
2023-02-27T04:25:04.786Z,66.42
2023-02-27T04:28:17.360Z,66.47
2023-02-27T04:31:24.624Z,66.82
2023-02-27T04:34:31.982Z,66.63
2023-02-27T04:37:42.471Z,67.23
2023-02-27T04:40:49.617Z,67.38
2023-02-27T04:44:09.874Z,67.80
2023-02-27T04:47:15.512Z,68.40
2023-02-27T04:50:21.538Z,68.25
2023-02-27T04:53:26.410Z,68.71
2023-02-27T04:56:32.183Z,67.82
2023-02-27T04:59:39.206Z,67.98
2023-02-27T05:02:45.710Z,68.14
2023-02-27T05:05:49.220Z,68.12
2023-02-27T05:08:59.081Z,68.67
2023-02-27T05:12:03.231Z,69.33
2023-02-27T05:15:10.243Z,70.15
2023-02-27T05:18:17.126Z,69.89
2023-02-27T05:21:27.920Z,70.14
2023-02-27T05:24:35.861Z,70.28
2023-02-27T05:27:47.342Z,71.26
2023-02-27T05:30:57.531Z,71.36
2023-02-27T05:34:17.130Z,71.69
2023-02-27T05:37:24.909Z,70.42
2023-02-27T05:40:32.206Z,70.98
2023-02-27T05:43:36.525Z,70.67
2023-02-27T05:46:42.810Z,70.34
2023-02-27T05:49:49.512Z,71.16
2023-02-27T05:52:52.746Z,71.37
2023-02-27T05:55:57.468Z,70.82
2023-02-27T05:59:02.336Z,70.67
2023-02-27T06:02:05.192Z,70.58
2023-02-27T06:05:10.153Z,70.52
2023-02-27T06:08:13.264Z,71.05
2023-02-27T06:11:15.772Z,70.79
2023-02-27T06:14:19.804Z,70.77
2023-02-27T06:17:22.922Z,70.85
2023-02-27T06:20:27.038Z,70.79
2023-02-27T06:23:29.614Z,70.95
2023-02-27T06:26:34.237Z,70.47
2023-02-27T06:29:48.034Z,70.72
2023-02-27T06:32:52.220Z,70.83
2023-02-27T06:37:04.809Z,70.48
2023-02-27T06:40:12.416Z,70.38
2023-02-27T06:43:15.518Z,70.21
2023-02-27T06:46:18.134Z,70.52
2023-02-27T06:49:20.932Z,70.82
2023-02-27T06:52:23.590Z,70.40
2023-02-27T06:55:27.576Z,70.18
2023-02-27T06:58:30.240Z,68.87
2023-02-27T07:01:33.159Z,68.73
2023-02-27T07:04:35.920Z,68.41
2023-02-27T07:07:42.886Z,67.70
2023-02-27T07:10:49.752Z,66.21
2023-02-27T07:14:06.166Z,66.34
2023-02-27T07:17:13.135Z,65.26
2023-02-27T07:20:16.538Z,65.18
2023-02-27T07:23:31.613Z,64.24
2023-02-27T07:26:58.929Z,64.25
2023-02-27T07:30:21.185Z,63.79
2023-02-27T07:33:27.526Z,63.47
2023-02-27T07:36:43.836Z,63.02
2023-02-27T07:43:27.686Z,62.65
2023-02-27T07:46:34.401Z,62.24
2023-02-27T07:57:26.123Z,60.90
2023-02-27T08:00:36.844Z,60.10
2023-02-27T08:03:40.605Z,60.03
2023-02-27T08:06:46.205Z,59.36
2023-02-27T08:09:48.844Z,58.85
2023-02-27T08:12:51.553Z,58.41
2023-02-27T08:15:57.022Z,57.46
2023-02-27T08:19:14.061Z,57.35
2023-02-27T08:22:17.009Z,56.88
2023-02-27T08:25:22.208Z,56.25
2023-02-27T08:28:35.394Z,56.06
2023-02-27T08:32:22.239Z,55.28
2023-02-27T08:35:29.905Z,54.58
2023-02-27T08:38:45.121Z,54.19
2023-02-27T08:41:56.932Z,52.83
2023-02-27T08:45:30.634Z,52.70
2023-02-27T08:49:32.549Z,51.87
2023-02-27T08:52:42.254Z,52.01
2023-02-27T08:56:17.107Z,51.32
2023-02-27T08:59:31.620Z,50.48
2023-02-27T09:02:34.897Z,50.13
2023-02-27T09:05:43.387Z,49.87
2023-02-27T09:08:46.183Z,49.51
2023-02-27T09:15:25.887Z,49.09
2023-02-27T09:18:29.219Z,48.18
2023-02-27T09:22:06.817Z,48.14
2023-02-27T09:25:15.429Z,48.02
2023-02-27T09:28:18.057Z,47.62
2023-02-27T09:31:20.595Z,47.20
2023-02-27T09:34:23.212Z,46.68
2023-02-27T09:37:27.131Z,46.51
2023-02-27T09:40:33.297Z,45.93
2023-02-27T09:44:00.257Z,45.75
2023-02-27T09:47:09.377Z,45.34
2023-02-27T09:54:41.502Z,44.34
2023-02-27T09:58:15.681Z,43.02
2023-02-27T10:01:23.538Z,42.20
2023-02-27T10:04:35.381Z,40.31
2023-02-27T10:07:45.455Z,39.76
2023-02-27T10:11:14.113Z,38.80
2023-02-27T10:14:30.697Z,38.39
2023-02-27T10:17:51.667Z,38.37
2023-02-27T10:21:09.399Z,37.52
2023-02-27T10:24:25.622Z,37.94
2023-02-27T10:27:37.189Z,37.60
2023-02-27T10:30:44.377Z,36.99
2023-02-27T10:33:50.654Z,36.68
2023-02-27T10:36:56.595Z,36.84
2023-02-27T10:40:08.802Z,36.24
2023-02-27T10:43:20.526Z,35.27
2023-02-27T10:46:32.580Z,34.78
2023-02-27T10:49:37.820Z,34.64
2023-02-27T10:52:52.445Z,33.18
2023-02-27T10:56:00.144Z,33.98
2023-02-27T10:59:06.949Z,33.43
2023-02-27T11:02:24.549Z,32.80
2023-02-27T11:05:55.222Z,33.41
2023-02-27T11:09:25.825Z,33.40
2023-02-27T11:12:29.914Z,33.67
2023-02-27T11:15:34.835Z,34.56
2023-02-27T11:18:38.666Z,34.49
2023-02-27T11:21:41.065Z,34.53
2023-02-27T11:24:44.179Z,34.84
2023-02-27T11:27:47.664Z,33.74
2023-02-27T11:31:03.477Z,34.04
2023-02-27T11:34:08.342Z,33.76
2023-02-27T11:37:23.336Z,34.19
2023-02-27T11:40:30.086Z,33.51
2023-02-27T11:43:34.383Z,33.73
2023-02-27T11:46:48.122Z,33.71
2023-02-27T11:50:11.632Z,34.55
2023-02-27T11:53:40.216Z,34.60
2023-02-27T11:56:45.574Z,34.23
2023-02-27T11:59:51.780Z,35.05
2023-02-27T12:02:59.591Z,34.37
2023-02-27T12:06:05.970Z,34.11
2023-02-27T12:09:21.663Z,32.95
2023-02-27T12:12:27.502Z,32.80
2023-02-27T12:15:32.483Z,32.92
2023-02-27T12:18:41.448Z,32.96
2023-02-27T12:21:48.402Z,33.11
2023-02-27T12:24:54.969Z,33.82
2023-02-27T12:28:03.082Z,33.56
2023-02-27T12:31:17.482Z,33.41
2023-02-27T12:34:29.752Z,33.82
2023-02-27T12:37:43.808Z,34.63
2023-02-27T12:41:10.333Z,34.96
2023-02-27T12:45:06.197Z,34.36
2023-02-27T12:48:39.786Z,33.70
2023-02-27T12:52:09.130Z,33.57
2023-02-27T12:55:41.333Z,33.05
2023-02-27T12:58:59.115Z,32.75
2023-02-27T13:02:29.528Z,32.67
2023-02-27T13:05:48.994Z,33.31
2023-02-27T13:09:17.139Z,33.11
2023-02-27T13:12:27.298Z,32.86
2023-02-27T13:15:34.505Z,28.13
2023-02-27T13:18:48.586Z,19.31
2023-02-27T13:22:00.418Z,16.96
2023-02-27T13:25:08.998Z,17.52
2023-02-27T13:28:23.841Z,20.44
2023-02-27T13:31:40.184Z,25.72
2023-02-27T13:34:46.212Z,28.88
2023-02-27T13:38:02.217Z,29.77
2023-02-27T13:45:04.134Z,23.89
2023-02-27T13:48:42.375Z,17.79
2023-02-27T13:51:51.987Z,16.97
2023-02-27T13:58:34.231Z,16.33
2023-02-27T14:01:42.903Z,15.51
2023-02-27T14:05:07.443Z,15.15
2023-02-27T14:08:21.104Z,18.91
2023-02-27T14:12:03.249Z,24.41
2023-02-27T14:15:20.807Z,29.87
2023-02-27T14:19:03.444Z,31.59
2023-02-27T14:22:37.553Z,32.22
2023-02-27T14:25:43.412Z,31.57
2023-02-27T14:28:50.863Z,28.80
2023-02-27T14:32:08.831Z,26.21
2023-02-27T14:35:17.863Z,23.32
2023-02-27T14:38:26.961Z,27.12
2023-02-27T14:41:41.636Z,30.91
2023-02-27T14:44:50.654Z,31.96
2023-02-27T14:48:05.090Z,31.99
2023-02-27T14:51:10.247Z,31.12
2023-02-27T14:54:15.858Z,32.57
2023-02-27T14:57:20.232Z,31.73
2023-02-27T15:00:35.258Z,31.45
2023-02-27T15:03:42.102Z,31.87
2023-02-27T15:06:48.012Z,32.32
2023-02-27T15:09:51.129Z,30.65
2023-02-27T15:13:04.093Z,31.64
2023-02-27T15:16:31.141Z,33.15
2023-02-27T15:19:34.214Z,33.87
2023-02-27T15:22:40.173Z,33.34
2023-02-27T15:25:43.311Z,33.85
2023-02-27T15:28:45.963Z,34.03
2023-02-27T15:31:48.900Z,34.63
2023-02-27T15:34:51.876Z,35.01
2023-02-27T15:37:57.456Z,35.56
2023-02-27T15:41:01.226Z,36.00
2023-02-27T15:44:04.683Z,35.74
2023-02-27T15:47:07.662Z,35.88
2023-02-27T15:50:13.277Z,35.94
2023-02-27T15:53:20.372Z,36.10
2023-02-27T15:56:27.658Z,36.16
2023-02-27T15:59:46.703Z,36.73
2023-02-27T16:02:53.712Z,36.53
2023-02-27T16:05:56.560Z,36.66
2023-02-27T16:09:01.954Z,36.84
2023-02-27T16:12:13.956Z,36.74
2023-02-27T16:15:30.356Z,36.56
2023-02-27T16:18:35.428Z,37.04
2023-02-27T16:21:38.096Z,37.55
2023-02-27T16:24:42.646Z,37.78
2023-02-27T16:27:48.665Z,37.50
2023-02-27T16:30:54.305Z,38.20
2023-02-27T16:33:58.474Z,38.93
2023-02-27T16:37:02.468Z,38.72
2023-02-27T16:40:14.435Z,38.85
2023-02-27T16:43:18.721Z,39.04
2023-02-27T16:46:24.703Z,38.96
2023-02-27T16:49:28.613Z,38.78
2023-02-27T16:52:31.272Z,38.48
2023-02-27T16:55:35.822Z,37.51
2023-02-27T16:58:38.608Z,37.64
2023-02-27T17:01:41.361Z,37.97
2023-02-27T17:04:47.573Z,38.18
2023-02-27T17:07:50.373Z,38.08
2023-02-27T17:10:54.446Z,38.11
2023-02-27T17:13:57.175Z,38.58
2023-02-27T17:16:59.816Z,38.78
2023-02-27T17:20:05.453Z,38.95
2023-02-27T17:23:12.106Z,39.46
2023-02-27T17:26:17.617Z,39.61
2023-02-27T17:29:20.279Z,39.70
2023-02-27T17:32:23.261Z,39.50
2023-02-27T17:35:26.732Z,39.18
2023-02-27T17:38:29.410Z,39.15
2023-02-27T17:41:34.364Z,39.40
2023-02-27T17:44:37.725Z,39.21
2023-02-27T17:47:40.363Z,39.71
2023-02-27T17:50:44.893Z,39.90
2023-02-27T17:53:47.878Z,39.96
2023-02-27T17:56:51.793Z,40.71
2023-02-27T17:59:54.514Z,40.90
2023-02-27T18:02:57.187Z,40.94
2023-02-27T18:06:00.217Z,40.91
2023-02-27T18:09:02.830Z,41.06
2023-02-27T18:12:07.228Z,40.96
2023-02-27T18:15:13.693Z,40.87
2023-02-27T18:18:16.508Z,41.35
2023-02-27T18:21:21.123Z,41.66
2023-02-27T18:24:23.904Z,40.90
2023-02-27T18:27:28.810Z,41.11
2023-02-27T18:30:33.440Z,40.93
2023-02-27T18:33:36.184Z,41.23
2023-02-27T18:36:39.550Z,40.97
2023-02-27T18:39:42.786Z,41.86
2023-02-27T18:42:48.453Z,41.53
2023-02-27T18:45:51.391Z,41.48
2023-02-27T18:48:54.138Z,41.50
2023-02-27T18:51:56.769Z,41.44
2023-02-27T18:55:02.988Z,41.71
2023-02-27T18:58:07.512Z,42.49
2023-02-27T19:01:18.983Z,42.65
2023-02-27T19:04:21.667Z,43.63
2023-02-27T19:07:25.498Z,42.85
2023-02-27T19:10:28.523Z,43.41
2023-02-27T19:13:32.939Z,43.82
2023-02-27T19:16:36.259Z,44.25
2023-02-27T19:19:38.938Z,44.65
2023-02-27T19:22:42.248Z,44.64
2023-02-27T19:25:48.052Z,45.07
2023-02-27T19:28:53.755Z,45.75
2023-02-27T19:31:56.980Z,46.00
2023-02-27T19:34:59.991Z,46.28
2023-02-27T19:38:02.758Z,45.88
2023-02-27T19:41:07.677Z,45.13
2023-02-27T19:44:11.745Z,45.74
2023-02-27T19:47:14.391Z,45.93
2023-02-27T19:50:17.421Z,46.31
2023-02-27T19:53:20.250Z,46.38
2023-02-27T19:56:25.151Z,46.52
2023-02-27T19:59:29.128Z,46.64
2023-02-27T20:02:31.707Z,47.14
2023-02-27T20:05:38.456Z,47.25
2023-02-27T20:08:41.113Z,47.21
2023-02-27T20:11:44.476Z,47.21
2023-02-27T20:14:48.491Z,46.65
2023-02-27T20:17:51.109Z,46.21
2023-02-27T20:21:00.223Z,46.48
2023-02-27T20:24:03.482Z,46.23
2023-02-27T20:27:07.360Z,46.49
2023-02-27T20:30:13.607Z,46.55
2023-02-27T20:33:16.251Z,46.54
2023-02-27T20:36:18.820Z,46.09
2023-02-27T20:39:22.353Z,45.48
2023-02-27T20:42:24.940Z,45.55
2023-02-27T20:45:29.140Z,45.16
2023-02-27T20:48:31.723Z,45.21
2023-02-27T20:51:36.891Z,44.93
2023-02-27T20:54:39.836Z,44.66
2023-02-27T20:57:42.563Z,44.72
2023-02-27T21:00:46.791Z,44.68
2023-02-27T21:03:50.992Z,44.27
2023-02-27T21:06:54.707Z,44.08
2023-02-27T21:09:57.510Z,43.81
2023-02-27T21:13:00.106Z,44.26
2023-02-27T21:16:04.748Z,44.14
2023-02-27T21:19:07.747Z,44.21
2023-02-27T21:22:11.392Z,43.65
2023-02-27T21:25:15.099Z,43.89
2023-02-27T21:28:18.066Z,43.50
2023-02-27T21:31:24.193Z,43.47
2023-02-27T21:34:28.271Z,43.23
2023-02-27T21:37:30.943Z,43.19
2023-02-27T21:40:33.696Z,43.17
2023-02-27T21:43:41.089Z,43.10
2023-02-27T21:46:46.589Z,43.16
2023-02-27T21:49:49.199Z,43.26
2023-02-27T21:52:52.423Z,43.41
2023-02-27T21:55:55.366Z,43.82
2023-02-27T21:59:01.793Z,43.60
2023-02-27T22:02:05.847Z,43.77
2023-02-27T22:05:09.111Z,43.70
2023-02-27T22:08:12.032Z,43.98
2023-02-27T22:11:15.125Z,45.04
2023-02-27T22:14:17.931Z,44.97
2023-02-27T22:17:22.553Z,45.74
2023-02-27T22:20:25.276Z,46.06
2023-02-27T22:23:28.360Z,46.80
2023-02-27T22:26:32.729Z,46.57
2023-02-27T22:29:35.359Z,47.25
2023-02-27T22:32:40.596Z,47.66
2023-02-27T22:35:43.829Z,47.55
2023-02-27T22:38:46.560Z,47.67
2023-02-27T22:41:49.407Z,48.18
2023-02-27T22:44:52.015Z,48.42
2023-02-27T22:47:56.099Z,48.83
2023-02-27T22:50:59.994Z,48.89
2023-02-27T22:54:03.246Z,49.24
2023-02-27T22:57:05.987Z,49.50
2023-02-27T23:00:11.754Z,49.81
2023-02-27T23:03:17.520Z,50.48
2023-02-27T23:06:22.098Z,51.06
2023-02-27T23:09:27.472Z,51.33
2023-02-27T23:12:30.092Z,51.20
2023-02-27T23:15:34.663Z,51.93
2023-02-27T23:18:39.429Z,51.55
2023-02-27T23:21:42.018Z,52.48
2023-02-27T23:24:44.920Z,52.66
2023-02-27T23:27:47.545Z,52.85
2023-02-27T23:30:50.716Z,53.19
2023-02-27T23:33:55.057Z,53.02
2023-02-27T23:36:57.750Z,53.06
2023-02-27T23:40:00.653Z,53.69
2023-02-27T23:43:20.998Z,53.62
2023-02-27T23:46:23.654Z,53.36
2023-02-27T23:49:27.612Z,53.58
2023-02-27T23:52:30.880Z,54.17
2023-02-27T23:55:35.114Z,53.96
2023-02-27T23:58:37.850Z,54.27
